Time;durP1;ratioP1;P1;durP2;ratioP2;P2;SDS_P1;SDS_P2;PMS_P1;PMS_P2;Temp;Humidity;BMP_temperature;BMP_pressure;BME280_temperature;BME280_humidity;BME280_pressure;Samples;Min_cycle;Max_cycle;Signal;HPM_P1;HPM_P2
2022/09/08 00:01:19;;;;;;;0.00;0.00;;;;;;;;;;4149283;28;20103;-48
2022/09/08 00:03:23;;;;;;;0.10;0.10;;;;;;;;;;4146909;28;20484;-45
2022/09/08 00:05:25;;;;;;;0.10;0.10;;;;;;;;;;4148778;28;20061;-47
2022/09/08 00:07:26;;;;;;;0.10;0.03;;;;;;;;;;4147527;28;20131;-45
2022/09/08 00:09:32;;;;;;;0.10;0.10;;;;;;;;;;4148812;28;20505;-46
2022/09/08 00:11:34;;;;;;;0.00;0.00;;;;;;;;;;4147572;28;20054;-45
2022/09/08 00:13:38;;;;;;;0.00;0.00;;;;;;;;;;4147733;28;20096;-45
2022/09/08 00:15:39;;;;;;;0.00;0.00;;;;;;;;;;4147327;28;20529;-47
2022/09/08 00:17:40;;;;;;;0.00;0.00;;;;;;;;;;4148241;28;20054;-46
2022/09/08 00:19:41;;;;;;;0.00;0.00;;;;;;;;;;4148949;28;20065;-47
2022/09/08 00:21:42;;;;;;;0.00;0.00;;;;;;;;;;4148975;28;20504;-46
2022/09/08 00:23:44;;;;;;;0.00;0.00;;;;;;;;;;4148325;28;20084;-46
2022/09/08 00:25:46;;;;;;;0.08;0.08;;;;;;;;;;4148668;28;20054;-45
2022/09/08 00:27:47;;;;;;;0.00;0.00;;;;;;;;;;4148691;28;20112;-48
2022/09/08 00:29:48;;;;;;;0.13;0.05;;;;;;;;;;4146687;28;20054;-48
2022/09/08 00:31:49;;;;;;;0.20;0.03;;;;;;;;;;4148330;28;20060;-47
2022/09/08 00:33:50;;;;;;;0.00;0.00;;;;;;;;;;4148325;28;20064;-49
2022/09/08 00:35:51;;;;;;;0.10;0.10;;;;;;;;;;4147322;28;20054;-46
2022/09/08 00:37:52;;;;;;;0.40;0.00;;;;;;;;;;4146789;28;20418;-47
2022/09/08 00:39:53;;;;;;;0.00;0.00;;;;;;;;;;4132215;28;20096;-47
2022/09/08 00:41:55;;;;;;;0.20;0.05;;;;;;;;;;4132187;28;20494;-46
2022/09/08 00:44:01;;;;;;;0.00;0.00;;;;;;;;;;4131983;28;20433;-49
2022/09/08 00:46:08;;;;;;;0.20;0.20;;;;;;;;;;4132237;28;20104;-50
2022/09/08 00:48:16;;;;;;;0.30;0.10;;;;;;;;;;4131599;28;20054;-46
2022/09/08 00:50:21;;;;;;;0.28;0.10;;;;;;;;;;4154810;28;20103;-50
2022/09/08 00:52:24;;;;;;;0.10;0.10;;;;;;;;;;4147911;28;20363;-49
2022/09/08 00:54:25;;;;;;;0.20;0.00;;;;;;;;;;4148152;28;20482;-47
2022/09/08 00:56:28;;;;;;;0.00;0.00;;;;;;;;;;4130581;28;20066;-50
2022/09/08 00:58:30;;;;;;;0.00;0.00;;;;;;;;;;4147892;28;20383;-50
2022/09/08 01:00:31;;;;;;;0.15;0.10;;;;;;;;;;4148213;28;20152;-49
2022/09/08 01:02:32;;;;;;;0.03;0.00;;;;;;;;;;4147185;28;20108;-49
2022/09/08 01:04:33;;;;;;;0.30;0.05;;;;;;;;;;4147495;28;20050;-48
2022/09/08 01:13:58;;;;;;;0.10;0.10;;;;;;;;;;4147785;28;20382;-47
2022/09/08 01:16:00;;;;;;;0.00;0.00;;;;;;;;;;4147813;28;20084;-46
2022/09/08 01:18:01;;;;;;;0.22;0.00;;;;;;;;;;4147526;28;20058;-45
2022/09/08 01:20:04;;;;;;;0.00;0.00;;;;;;;;;;4147734;28;20098;-47
2022/09/08 01:22:20;;;;;;;0.00;0.00;;;;;;;;;;4147727;28;20064;-45
2022/09/08 01:24:46;;;;;;;0.00;0.00;;;;;;;;;;4146500;28;20108;-45
2022/09/08 01:27:13;;;;;;;0.00;0.00;;;;;;;;;;4147707;28;20064;-46
2022/09/08 01:29:15;;;;;;;0.10;0.00;;;;;;;;;;4146108;28;20053;-47
2022/09/08 01:31:17;;;;;;;0.00;0.00;;;;;;;;;;4147593;28;20536;-50
2022/09/08 01:33:19;;;;;;;0.00;0.00;;;;;;;;;;4147048;28;20084;-47
2022/09/08 01:35:28;;;;;;;0.08;0.08;;;;;;;;;;4147701;28;20089;-48
2022/09/08 01:37:29;;;;;;;0.00;0.00;;;;;;;;;;4147407;28;20069;-48
2022/09/08 01:39:31;;;;;;;0.20;0.10;;;;;;;;;;4146168;28;20088;-48
2022/09/08 01:41:32;;;;;;;0.00;0.00;;;;;;;;;;4147410;28;20089;-46
2022/09/08 01:43:33;;;;;;;0.08;0.08;;;;;;;;;;4147462;28;20116;-47
2022/09/08 01:45:35;;;;;;;0.20;0.00;;;;;;;;;;4146066;28;20115;-47
2022/09/08 01:47:36;;;;;;;0.50;0.00;;;;;;;;;;4146659;28;20555;-47
2022/09/08 01:49:38;;;;;;;0.00;0.00;;;;;;;;;;4146313;28;20107;-46
2022/09/08 01:51:40;;;;;;;0.03;0.00;;;;;;;;;;4145999;28;20050;-45
2022/09/08 01:53:41;;;;;;;0.20;0.10;;;;;;;;;;4147019;28;20054;-45
2022/09/08 01:55:46;;;;;;;0.00;0.00;;;;;;;;;;4147260;28;20057;-48
2022/09/08 01:57:47;;;;;;;1.10;0.10;;;;;;;;;;4145885;28;20069;-46
2022/09/08 01:59:48;;;;;;;0.10;0.10;;;;;;;;;;4145957;28;20490;-46
2022/09/08 02:01:49;;;;;;;0.00;0.00;;;;;;;;;;4146909;28;20390;-45
2022/09/08 02:03:51;;;;;;;0.10;0.10;;;;;;;;;;4145396;28;20049;-45
2022/09/08 02:05:52;;;;;;;0.00;0.00;;;;;;;;;;4146959;28;20061;-46
2022/09/08 02:07:53;;;;;;;0.00;0.00;;;;;;;;;;4147021;28;20119;-49
2022/09/08 02:09:54;;;;;;;0.00;0.00;;;;;;;;;;4146952;28;20548;-46
2022/09/08 02:11:55;;;;;;;0.15;0.03;;;;;;;;;;4145893;28;20084;-46
2022/09/08 02:13:58;;;;;;;0.00;0.00;;;;;;;;;;4147020;28;20068;-46
2022/09/08 02:16:04;;;;;;;0.05;0.00;;;;;;;;;;4146299;28;20054;-48
2022/09/08 02:18:05;;;;;;;0.05;0.00;;;;;;;;;;4146722;28;20053;-46
2022/09/08 02:20:07;;;;;;;0.00;0.00;;;;;;;;;;4146896;28;20052;-47
2022/09/08 02:22:09;;;;;;;0.15;0.10;;;;;;;;;;4147026;28;20049;-48
2022/09/08 02:24:10;;;;;;;0.13;0.00;;;;;;;;;;4147235;28;20096;-47
2022/09/08 02:26:17;;;;;;;0.03;0.03;;;;;;;;;;4146983;28;20461;-46
2022/09/08 02:28:18;;;;;;;0.00;0.00;;;;;;;;;;4145992;28;20061;-46
2022/09/08 02:30:20;;;;;;;0.03;0.00;;;;;;;;;;4146772;28;20133;-48
2022/09/08 02:32:21;;;;;;;0.00;0.00;;;;;;;;;;4145627;28;20065;-48
2022/09/08 02:34:22;;;;;;;0.00;0.00;;;;;;;;;;4145816;28;20383;-47
2022/09/08 02:36:24;;;;;;;1.17;0.03;;;;;;;;;;4145640;28;20123;-45
2022/09/08 02:38:25;;;;;;;0.00;0.00;;;;;;;;;;4146802;28;20058;-47
2022/09/08 02:40:26;;;;;;;0.00;0.00;;;;;;;;;;4146596;28;20465;-46
2022/09/08 02:42:27;;;;;;;0.03;0.00;;;;;;;;;;4146339;28;20060;-47
2022/09/08 02:44:29;;;;;;;0.08;0.08;;;;;;;;;;4146656;28;20065;-47
2022/09/08 02:46:30;;;;;;;0.00;0.00;;;;;;;;;;4146666;28;20111;-47
2022/09/08 02:48:31;;;;;;;0.03;0.00;;;;;;;;;;4146343;28;20112;-47
2022/09/08 02:50:33;;;;;;;0.10;0.10;;;;;;;;;;4146609;28;20559;-48
2022/09/08 02:52:34;;;;;;;0.00;0.00;;;;;;;;;;4146646;28;20061;-50
2022/09/08 02:54:35;;;;;;;0.30;0.10;;;;;;;;;;4145428;28;20057;-46
2022/09/08 02:56:36;;;;;;;0.00;0.00;;;;;;;;;;4146585;28;20058;-47
2022/09/08 02:58:38;;;;;;;0.10;0.00;;;;;;;;;;4146545;28;20057;-47
2022/09/08 03:00:39;;;;;;;0.30;0.00;;;;;;;;;;4145406;28;20054;-47
2022/09/08 03:02:40;;;;;;;0.00;0.00;;;;;;;;;;4145806;28;20494;-46
2022/09/08 03:04:42;;;;;;;0.32;0.10;;;;;;;;;;4146859;28;20101;-47
2022/09/08 03:06:43;;;;;;;0.05;0.05;;;;;;;;;;4145666;28;20112;-47
2022/09/08 03:08:46;;;;;;;0.03;0.00;;;;;;;;;;4146267;28;20053;-47
2022/09/08 03:10:50;;;;;;;0.10;0.05;;;;;;;;;;4145394;28;20058;-45
2022/09/08 03:12:53;;;;;;;0.15;0.10;;;;;;;;;;4145747;28;20490;-46
2022/09/08 03:14:56;;;;;;;0.00;0.00;;;;;;;;;;4146696;28;20535;-46
2022/09/08 03:16:57;;;;;;;0.00;0.00;;;;;;;;;;4146807;28;20058;-45
2022/09/08 03:18:58;;;;;;;0.10;0.00;;;;;;;;;;4146244;28;20045;-46
2022/09/08 03:21:03;;;;;;;0.00;0.00;;;;;;;;;;4146842;28;20049;-46
2022/09/08 03:23:04;;;;;;;0.10;0.00;;;;;;;;;;4146453;28;20058;-45
2022/09/08 03:25:06;;;;;;;0.10;0.10;;;;;;;;;;4146576;28;20054;-47
2022/09/08 03:27:07;;;;;;;0.00;0.00;;;;;;;;;;4145313;28;20136;-46
2022/09/08 03:29:08;;;;;;;0.13;0.00;;;;;;;;;;4148170;28;20085;-46
2022/09/08 03:31:16;;;;;;;0.00;0.00;;;;;;;;;;4149420;28;20054;-46
2022/09/08 03:33:18;;;;;;;0.10;0.00;;;;;;;;;;4148840;28;20452;-46
2022/09/08 03:35:19;;;;;;;0.03;0.00;;;;;;;;;;4149518;28;20065;-46
2022/09/08 03:37:20;;;;;;;0.10;0.10;;;;;;;;;;4149425;28;20084;-48
2022/09/08 03:39:21;;;;;;;0.20;0.10;;;;;;;;;;4149553;28;20116;-45
2022/09/08 03:41:23;;;;;;;0.10;0.10;;;;;;;;;;4147887;28;20053;-47
2022/09/08 03:43:25;;;;;;;0.00;0.00;;;;;;;;;;4149419;28;20120;-45
2022/09/08 03:45:26;;;;;;;0.00;0.00;;;;;;;;;;4149194;28;20124;-50
2022/09/08 03:47:27;;;;;;;0.30;0.10;;;;;;;;;;4148661;28;20116;-46
2022/09/08 03:49:29;;;;;;;0.05;0.00;;;;;;;;;;4147882;28;20088;-46
2022/09/08 03:51:30;;;;;;;0.00;0.00;;;;;;;;;;4149081;28;20069;-47
2022/09/08 03:53:31;;;;;;;0.00;0.00;;;;;;;;;;4147810;28;20458;-47
2022/09/08 03:55:33;;;;;;;0.00;0.00;;;;;;;;;;4149292;28;20112;-47
2022/09/08 03:57:34;;;;;;;0.40;0.10;;;;;;;;;;4148869;28;20057;-46
2022/09/08 03:59:36;;;;;;;0.00;0.00;;;;;;;;;;4149334;28;20049;-50
2022/09/08 04:01:38;;;;;;;0.03;0.03;;;;;;;;;;4147501;28;20517;-49
2022/09/08 04:03:40;;;;;;;0.10;0.10;;;;;;;;;;4148164;28;20050;-47
2022/09/08 04:05:41;;;;;;;0.00;0.00;;;;;;;;;;4147927;28;20050;-49
2022/09/08 04:07:42;;;;;;;0.10;0.10;;;;;;;;;;4148889;28;20100;-47
2022/09/08 04:09:43;;;;;;;0.00;0.00;;;;;;;;;;4147426;28;20476;-48
2022/09/08 04:11:45;;;;;;;0.15;0.10;;;;;;;;;;4148394;28;20171;-48
2022/09/08 04:13:47;;;;;;;0.05;0.05;;;;;;;;;;4148347;28;20445;-47
2022/09/08 04:15:48;;;;;;;0.20;0.10;;;;;;;;;;4148507;28;20054;-46
2022/09/08 04:17:49;;;;;;;0.13;0.10;;;;;;;;;;4148099;28;20127;-48
2022/09/08 04:19:51;;;;;;;0.03;0.03;;;;;;;;;;4148722;28;20122;-46
2022/09/08 04:21:52;;;;;;;0.00;0.00;;;;;;;;;;4147289;28;20489;-45
2022/09/08 04:23:53;;;;;;;0.10;0.10;;;;;;;;;;4148311;28;20062;-48
2022/09/08 04:25:58;;;;;;;0.05;0.00;;;;;;;;;;4148484;28;20061;-45
2022/09/08 04:28:00;;;;;;;0.00;0.00;;;;;;;;;;4148561;28;20057;-49
2022/09/08 04:30:02;;;;;;;0.20;0.08;;;;;;;;;;4146917;28;20057;-46
2022/09/08 04:32:03;;;;;;;0.10;0.10;;;;;;;;;;4148317;28;20408;-48
2022/09/08 04:34:05;;;;;;;0.05;0.00;;;;;;;;;;4147901;28;20104;-47
2022/09/08 04:36:15;;;;;;;0.00;0.00;;;;;;;;;;4148192;28;20053;-46
2022/09/08 04:38:16;;;;;;;0.00;0.00;;;;;;;;;;4148302;28;20100;-47
2022/09/08 04:40:17;;;;;;;0.00;0.00;;;;;;;;;;4147493;28;20525;-49
2022/09/08 04:42:21;;;;;;;0.00;0.00;;;;;;;;;;4146830;28;20057;-49
2022/09/08 04:44:22;;;;;;;0.40;0.03;;;;;;;;;;4146783;28;20064;-47
2022/09/08 04:46:23;;;;;;;0.28;0.10;;;;;;;;;;4146974;28;20084;-47
2022/09/08 04:48:24;;;;;;;0.00;0.00;;;;;;;;;;4147956;28;20054;-47
2022/09/08 04:50:26;;;;;;;0.08;0.00;;;;;;;;;;4148211;28;20049;-49
2022/09/08 04:52:27;;;;;;;0.10;0.10;;;;;;;;;;4147849;28;20062;-46
2022/09/08 04:54:28;;;;;;;0.20;0.10;;;;;;;;;;4148183;28;20108;-46
2022/09/08 04:56:30;;;;;;;0.50;0.00;;;;;;;;;;4147933;28;20072;-47
2022/09/08 04:58:32;;;;;;;0.10;0.10;;;;;;;;;;4147844;28;20355;-47
2022/09/08 05:00:34;;;;;;;0.10;0.00;;;;;;;;;;4144989;28;20096;-46
2022/09/08 05:02:35;;;;;;;0.17;0.17;;;;;;;;;;4145453;28;20068;-48
2022/09/08 05:04:37;;;;;;;0.30;0.20;;;;;;;;;;4146424;28;20065;-48
2022/09/08 05:06:38;;;;;;;0.40;0.40;;;;;;;;;;4144824;28;20517;-47
2022/09/08 05:08:44;;;;;;;1.70;0.70;;;;;;;;;;4145033;28;20085;-48
2022/09/08 05:10:48;;;;;;;1.33;0.63;;;;;;;;;;4146421;28;20104;-47
2022/09/08 05:12:49;;;;;;;2.42;1.42;;;;;;;;;;4145837;28;20116;-49
2022/09/08 05:14:50;;;;;;;4.10;1.90;;;;;;;;;;4145934;28;20108;-48
2022/09/08 05:16:51;;;;;;;5.82;2.67;;;;;;;;;;4144813;28;20470;-47
2022/09/08 05:19:00;;;;;;;4.18;1.77;;;;;;;;;;4146359;28;20053;-46
2022/09/08 05:21:02;;;;;;;3.35;1.95;;;;;;;;;;4137094;28;20453;-47
2022/09/08 05:23:03;;;;;;;4.45;2.35;;;;;;;;;;4146322;28;20103;-46
2022/09/08 05:25:04;;;;;;;2.95;1.75;;;;;;;;;;4145483;28;20100;-49
2022/09/08 05:27:05;;;;;;;3.35;2.00;;;;;;;;;;4141590;28;20167;-48
2022/09/08 05:29:07;;;;;;;5.28;2.40;;;;;;;;;;4143952;28;20062;-47
2022/09/08 05:31:12;;;;;;;4.00;2.25;;;;;;;;;;4144205;28;20058;-49
2022/09/08 05:33:14;;;;;;;2.92;1.83;;;;;;;;;;4144732;28;20096;-46
2022/09/08 05:35:15;;;;;;;4.10;2.45;;;;;;;;;;4145796;28;20058;-48
2022/09/08 05:37:17;;;;;;;5.93;2.53;;;;;;;;;;4144875;28;20053;-47
2022/09/08 05:39:17;;;;;;;4.38;2.50;;;;;;;;;;4145715;28;20490;-47
2022/09/08 05:41:19;;;;;;;4.53;2.53;;;;;;;;;;4145431;28;20050;-46
2022/09/08 05:43:20;;;;;;;5.55;2.97;;;;;;;;;;4143870;28;20571;-45
2022/09/08 05:45:21;;;;;;;4.65;2.85;;;;;;;;;;4134641;28;20572;-47
2022/09/08 05:47:23;;;;;;;4.60;2.60;;;;;;;;;;4143292;28;20116;-47
2022/09/08 05:49:24;;;;;;;3.95;2.40;;;;;;;;;;4151339;28;20490;-48
2022/09/08 05:51:26;;;;;;;4.25;2.40;;;;;;;;;;4145160;28;20096;-49
2022/09/08 05:53:27;;;;;;;3.90;2.40;;;;;;;;;;4149827;28;20111;-45
2022/09/08 05:55:29;;;;;;;5.47;2.55;;;;;;;;;;4144646;28;20069;-47
2022/09/08 05:57:30;;;;;;;5.57;2.83;;;;;;;;;;4141187;28;20359;-46
2022/09/08 05:59:31;;;;;;;4.90;2.30;;;;;;;;;;4144449;28;20065;-49
2022/09/08 06:01:33;;;;;;;5.03;2.40;;;;;;;;;;4141206;28;20545;-48
2022/09/08 06:03:34;;;;;;;5.45;2.40;;;;;;;;;;4140232;28;20061;-48
2022/09/08 06:05:36;;;;;;;3.95;2.20;;;;;;;;;;4153876;28;20053;-46
2022/09/08 06:07:37;;;;;;;3.92;2.30;;;;;;;;;;4147346;28;20061;-53
2022/09/08 06:09:39;;;;;;;5.47;2.25;;;;;;;;;;4144672;28;20050;-45
2022/09/08 06:11:40;;;;;;;4.72;1.98;;;;;;;;;;4136241;28;20111;-47
2022/09/08 06:13:42;;;;;;;3.92;1.95;;;;;;;;;;4134640;28;21749;-47
2022/09/08 06:15:44;;;;;;;4.07;2.38;;;;;;;;;;4136516;28;20084;-47
2022/09/08 06:17:45;;;;;;;4.57;1.90;;;;;;;;;;4144011;28;20510;-47
2022/09/08 06:19:46;;;;;;;3.83;1.70;;;;;;;;;;4131954;28;20092;-48
2022/09/08 06:21:47;;;;;;;3.30;1.80;;;;;;;;;;4127097;28;20057;-47
2022/09/08 06:23:51;;;;;;;2.72;1.58;;;;;;;;;;4131377;28;20157;-46
2022/09/08 06:25:52;;;;;;;3.58;1.65;;;;;;;;;;4132282;28;20109;-46
2022/09/08 06:28:28;;;;;;;4.88;1.90;;;;;;;;;;4134681;28;20500;-47
2022/09/08 06:30:30;;;;;;;2.40;1.15;;;;;;;;;;4127039;28;20054;-47
2022/09/08 06:32:46;;;;;;;2.03;1.40;;;;;;;;;;4133743;28;20565;-47
2022/09/08 06:34:52;;;;;;;3.40;1.50;;;;;;;;;;4129776;28;20058;-47
2022/09/08 06:36:58;;;;;;;2.63;1.10;;;;;;;;;;4123471;28;20101;-46
2022/09/08 06:39:04;;;;;;;3.08;1.45;;;;;;;;;;4133219;28;20084;-48
2022/09/08 06:41:18;;;;;;;3.00;1.73;;;;;;;;;;4132134;28;20050;-45
2022/09/08 06:43:27;;;;;;;2.35;1.17;;;;;;;;;;4132863;28;20065;-46
2022/09/08 06:45:32;;;;;;;2.45;1.30;;;;;;;;;;4133437;28;21098;-47
2022/09/08 06:47:39;;;;;;;2.50;0.95;;;;;;;;;;4129261;28;20109;-46
2022/09/08 06:49:41;;;;;;;2.25;1.15;;;;;;;;;;4130830;28;20058;-46
2022/09/08 06:51:47;;;;;;;2.42;1.00;;;;;;;;;;4128079;28;20841;-45
2022/09/08 06:54:06;;;;;;;2.08;1.10;;;;;;;;;;4132036;28;20065;-47
2022/09/08 06:56:13;;;;;;;2.35;1.48;;;;;;;;;;4130200;28;20070;-45
2022/09/08 06:58:28;;;;;;;3.33;0.95;;;;;;;;;;4111152;28;20519;-47
2022/09/08 07:00:58;;;;;;;3.17;1.40;;;;;;;;;;4118740;28;20054;-48
2022/09/08 07:03:28;;;;;;;3.40;1.23;;;;;;;;;;4119521;28;20248;-46
2022/09/08 07:05:57;;;;;;;2.60;0.70;;;;;;;;;;4123360;28;20116;-46
2022/09/08 07:08:27;;;;;;;4.28;1.17;;;;;;;;;;4121331;28;20117;-46
2022/09/08 07:11:00;;;;;;;2.80;1.15;;;;;;;;;;4117238;28;20066;-46
2022/09/08 07:13:22;;;;;;;2.95;1.33;;;;;;;;;;4109848;28;20101;-46
2022/09/08 07:15:48;;;;;;;2.53;0.90;;;;;;;;;;4102326;28;20128;-46
2022/09/08 07:18:22;;;;;;;1.92;0.80;;;;;;;;;;4114898;28;20588;-46
2022/09/08 07:20:27;;;;;;;2.03;0.75;;;;;;;;;;4110421;28;20062;-46
2022/09/08 07:22:31;;;;;;;1.77;1.10;;;;;;;;;;4104960;28;20454;-47
2022/09/08 07:24:36;;;;;;;2.22;0.60;;;;;;;;;;4112909;28;20543;-46
2022/09/08 07:26:44;;;;;;;3.38;0.85;;;;;;;;;;4112324;28;20136;-45
2022/09/08 07:28:48;;;;;;;2.55;0.70;;;;;;;;;;4109076;28;20690;-47
2022/09/08 07:31:00;;;;;;;3.70;1.08;;;;;;;;;;4109746;28;20057;-52
2022/09/08 07:33:31;;;;;;;1.33;0.70;;;;;;;;;;4114994;28;20062;-47
2022/09/08 07:35:47;;;;;;;1.27;0.70;;;;;;;;;;4107514;28;20101;-47
2022/09/08 07:37:51;;;;;;;2.03;0.85;;;;;;;;;;4113981;28;20054;-45
2022/09/08 07:40:03;;;;;;;3.33;0.70;;;;;;;;;;4118203;28;20057;-45
2022/09/08 07:42:08;;;;;;;1.77;0.70;;;;;;;;;;4116796;28;20065;-49
2022/09/08 07:44:15;;;;;;;2.97;1.15;;;;;;;;;;4099724;28;20601;-46
2022/09/08 07:46:22;;;;;;;1.20;0.60;;;;;;;;;;4118615;28;20070;-46
2022/09/08 07:48:32;;;;;;;2.05;0.63;;;;;;;;;;4110968;28;20058;-47
2022/09/08 07:50:54;;;;;;;1.55;0.60;;;;;;;;;;4112353;28;20050;-47
2022/09/08 07:53:07;;;;;;;1.10;0.70;;;;;;;;;;4124350;28;20096;-50
2022/09/08 07:55:27;;;;;;;1.15;0.57;;;;;;;;;;4108935;28;20129;-47
2022/09/08 07:57:34;;;;;;;3.47;0.70;;;;;;;;;;4104083;28;21224;-47
2022/09/08 07:59:50;;;;;;;0.80;0.50;;;;;;;;;;4099500;28;20148;-47
2022/09/08 08:02:02;;;;;;;5.03;0.60;;;;;;;;;;4105710;28;20061;-46
2022/09/08 08:04:34;;;;;;;1.05;0.40;;;;;;;;;;4118660;28;20093;-45
2022/09/08 08:06:39;;;;;;;0.47;0.30;;;;;;;;;;4126498;28;20147;-45
2022/09/08 08:08:46;;;;;;;1.38;0.38;;;;;;;;;;4128619;28;20060;-45
2022/09/08 08:11:08;;;;;;;1.00;0.50;;;;;;;;;;4126293;28;22165;-45
2022/09/08 08:13:43;;;;;;;2.67;0.40;;;;;;;;;;4126165;28;20382;-45
2022/09/08 08:15:55;;;;;;;0.73;0.45;;;;;;;;;;4127735;28;20064;-45
2022/09/08 08:18:11;;;;;;;0.52;0.40;;;;;;;;;;4142935;28;20108;-46
2022/09/08 08:20:34;;;;;;;3.83;0.52;;;;;;;;;;4126851;28;20100;-47
2022/09/08 08:22:56;;;;;;;2.05;0.30;;;;;;;;;;4128300;28;20058;-46
2022/09/08 08:25:03;;;;;;;2.17;0.40;;;;;;;;;;4127771;28;20058;-44
2022/09/08 08:27:26;;;;;;;1.50;0.40;;;;;;;;;;4143266;28;20483;-43
2022/09/08 08:29:38;;;;;;;1.05;0.30;;;;;;;;;;4143737;28;20521;-44
2022/09/08 08:31:51;;;;;;;1.77;0.40;;;;;;;;;;4118444;28;20528;-44
2022/09/08 08:34:07;;;;;;;0.30;0.30;;;;;;;;;;4122582;28;20517;-43
2022/09/08 08:36:15;;;;;;;0.77;0.40;;;;;;;;;;4122285;28;20136;-46
2022/09/08 08:38:24;;;;;;;1.10;0.47;;;;;;;;;;4125655;28;20575;-43
2022/09/08 08:40:51;;;;;;;4.18;0.52;;;;;;;;;;4131936;28;20116;-43
2022/09/08 08:43:05;;;;;;;0.60;0.30;;;;;;;;;;4125719;28;20561;-44
2022/09/08 08:45:11;;;;;;;2.08;0.50;;;;;;;;;;4127779;28;20472;-43
2022/09/08 08:47:22;;;;;;;1.60;0.60;;;;;;;;;;4128165;28;20108;-43
2022/09/08 08:49:41;;;;;;;;;;;;;;;;;;4122536;28;20497;-44
2022/09/08 08:52:00;;;;;;;0.85;0.22;;;;;;;;;;4138807;28;20871;-43
2022/09/08 08:54:14;;;;;;;0.20;0.10;;;;;;;;;;4119351;28;20819;-42
2022/09/08 08:56:30;;;;;;;0.57;0.20;;;;;;;;;;4126550;28;20062;-47
2022/09/08 08:58:50;;;;;;;0.55;0.30;;;;;;;;;;4129243;28;20406;-45
2022/09/08 09:01:02;;;;;;;3.40;0.45;;;;;;;;;;4134338;28;20049;-47
2022/09/08 09:03:21;;;;;;;2.15;0.30;;;;;;;;;;4116077;28;20064;-47
2022/09/08 09:05:45;;;;;;;0.30;0.30;;;;;;;;;;4123140;28;20058;-46
2022/09/08 09:08:08;;;;;;;3.78;0.52;;;;;;;;;;4129179;28;20057;-47
2022/09/08 09:10:30;;;;;;;1.35;0.30;;;;;;;;;;4122147;28;20429;-46
2022/09/08 09:13:09;;;;;;;0.77;0.30;;;;;;;;;;4126373;28;20061;-46
2022/09/08 09:15:29;;;;;;;2.40;0.50;;;;;;;;;;4126809;28;22425;-44
2022/09/08 09:17:52;;;;;;;1.02;0.38;;;;;;;;;;4123942;28;22017;-46
2022/09/08 09:19:59;;;;;;;1.27;0.30;;;;;;;;;;4126449;28;20081;-45
2022/09/08 09:22:11;;;;;;;2.95;0.25;;;;;;;;;;4123747;28;20555;-46
2022/09/08 09:24:41;;;;;;;0.35;0.20;;;;;;;;;;4127233;28;20081;-46
2022/09/08 09:26:45;;;;;;;;;;;;;;;;;;4127231;28;20112;-44
2022/09/08 09:29:10;;;;;;;0.43;0.15;;;;;;;;;;4126749;28;20320;-45
2022/09/08 09:31:36;;;;;;;1.63;0.28;;;;;;;;;;4128571;28;20100;-44
2022/09/08 09:33:55;;;;;;;0.22;0.10;;;;;;;;;;4125316;28;20058;-44
2022/09/08 09:36:21;;;;;;;1.55;0.20;;;;;;;;;;4124884;28;20046;-46
2022/09/08 09:38:34;;;;;;;0.22;0.20;;;;;;;;;;4124963;28;20065;-45
2022/09/08 09:41:36;;;;;;;0.90;0.20;;;;;;;;;;4124398;28;20053;-44
2022/09/08 09:44:17;;;;;;;0.22;0.20;;;;;;;;;;4117958;28;20242;-45
2022/09/08 09:46:56;;;;;;;0.17;0.17;;;;;;;;;;4130690;28;20064;-45
2022/09/08 09:49:26;;;;;;;0.40;0.13;;;;;;;;;;4126960;28;20891;-46
2022/09/08 09:51:36;;;;;;;2.55;0.60;;;;;;;;;;4123909;28;20132;-46
2022/09/08 09:53:58;;;;;;;0.30;0.30;;;;;;;;;;4128686;28;20088;-45
2022/09/08 09:56:33;;;;;;;0.47;0.20;;;;;;;;;;4130501;28;20129;-45
2022/09/08 09:58:46;;;;;;;0.70;0.30;;;;;;;;;;4126152;28;20554;-46
2022/09/08 10:01:14;;;;;;;0.15;0.15;;;;;;;;;;4120935;28;20149;-46
2022/09/08 10:03:37;;;;;;;0.57;0.32;;;;;;;;;;4121178;28;20058;-45
2022/09/08 10:06:09;;;;;;;0.28;0.28;;;;;;;;;;4141598;28;20586;-46
2022/09/08 10:08:26;;;;;;;0.40;0.22;;;;;;;;;;4132513;28;20392;-45
2022/09/08 10:10:27;;;;;;;0.80;0.43;;;;;;;;;;4130780;28;20808;-46
2022/09/08 10:12:57;;;;;;;3.00;0.40;;;;;;;;;;4127678;28;20061;-47
2022/09/08 10:15:25;;;;;;;1.75;0.45;;;;;;;;;;4132266;28;20089;-49
2022/09/08 10:17:47;;;;;;;0.60;0.32;;;;;;;;;;4129331;28;20473;-47
2022/09/08 10:20:11;;;;;;;1.08;0.40;;;;;;;;;;4128950;28;20054;-46
2022/09/08 10:22:40;;;;;;;2.22;0.30;;;;;;;;;;4127201;28;20066;-47
2022/09/08 10:25:09;;;;;;;0.40;0.20;;;;;;;;;;4130199;28;20532;-47
2022/09/08 10:27:45;;;;;;;0.47;0.30;;;;;;;;;;4130779;28;20068;-48
2022/09/08 10:30:09;;;;;;;1.17;0.28;;;;;;;;;;4128448;28;20080;-45
2022/09/08 10:32:49;;;;;;;1.63;0.32;;;;;;;;;;4129282;28;20103;-47
2022/09/08 10:35:05;;;;;;;0.38;0.20;;;;;;;;;;4134713;28;21019;-48
2022/09/08 10:37:51;;;;;;;2.30;0.38;;;;;;;;;;4133062;28;20053;-47
2022/09/08 10:40:26;;;;;;;0.40;0.20;;;;;;;;;;4131355;28;20655;-48
2022/09/08 10:42:47;;;;;;;0.68;0.40;;;;;;;;;;4132089;28;20053;-48
2022/09/08 10:45:15;;;;;;;2.63;0.43;;;;;;;;;;4131129;28;20061;-47
2022/09/08 10:47:49;;;;;;;1.15;0.32;;;;;;;;;;4117219;28;21386;-49
2022/09/08 10:50:19;;;;;;;0.28;0.17;;;;;;;;;;4127948;28;20125;-48
2022/09/08 10:52:23;;;;;;;0.45;0.28;;;;;;;;;;4141688;28;20560;-48
2022/09/08 10:54:54;;;;;;;5.47;0.30;;;;;;;;;;4128029;28;20068;-49
2022/09/08 10:56:58;;;;;;;2.17;0.30;;;;;;;;;;4116990;28;20065;-47
2022/09/08 10:59:11;;;;;;;1.33;0.38;;;;;;;;;;4114090;28;20062;-48
2022/09/08 11:01:50;;;;;;;0.40;0.20;;;;;;;;;;4105809;28;20539;-49
2022/09/08 11:03:58;;;;;;;0.70;0.22;;;;;;;;;;4110034;28;20480;-49
2022/09/08 11:06:07;;;;;;;0.98;0.32;;;;;;;;;;4121224;28;20073;-47
2022/09/08 11:08:23;;;;;;;0.98;0.30;;;;;;;;;;4127786;28;20092;-48
2022/09/08 11:10:37;;;;;;;2.58;0.30;;;;;;;;;;4129029;28;20100;-48
2022/09/08 11:12:51;;;;;;;0.30;0.30;;;;;;;;;;4124602;28;20107;-48
2022/09/08 11:15:14;;;;;;;0.88;0.30;;;;;;;;;;4126064;28;20050;-48
2022/09/08 11:17:22;;;;;;;0.20;0.20;;;;;;;;;;4125585;28;20275;-47
2022/09/08 11:19:39;;;;;;;3.92;0.30;;;;;;;;;;4125371;28;20084;-47
2022/09/08 11:21:49;;;;;;;0.43;0.40;;;;;;;;;;4130103;28;20497;-48
2022/09/08 11:24:11;;;;;;;1.75;0.20;;;;;;;;;;4130448;28;20100;-48
2022/09/08 11:26:21;;;;;;;2.08;0.30;;;;;;;;;;4134393;28;20196;-49
2022/09/08 11:28:43;;;;;;;0.60;0.20;;;;;;;;;;4129811;28;20100;-49
2022/09/08 11:30:54;;;;;;;0.38;0.20;;;;;;;;;;4127625;28;20054;-48
2022/09/08 11:33:26;;;;;;;1.23;0.38;;;;;;;;;;4132931;28;20135;-47
2022/09/08 11:36:02;;;;;;;0.55;0.20;;;;;;;;;;4130418;28;20108;-49
2022/09/08 11:38:25;;;;;;;0.75;0.40;;;;;;;;;;4134446;28;20058;-47
2022/09/08 11:40:26;;;;;;;2.47;0.30;;;;;;;;;;4130233;28;21066;-47
2022/09/08 11:42:27;;;;;;;1.17;0.35;;;;;;;;;;4128079;28;20066;-47
2022/09/08 11:45:05;;;;;;;0.35;0.20;;;;;;;;;;4131784;28;20085;-47
2022/09/08 11:47:30;;;;;;;2.72;0.35;;;;;;;;;;4129230;28;21010;-47
2022/09/08 11:49:59;;;;;;;0.22;0.20;;;;;;;;;;4133253;28;20116;-47
2022/09/08 11:52:24;;;;;;;2.63;0.35;;;;;;;;;;4132385;28;20131;-47
2022/09/08 11:54:55;;;;;;;0.38;0.22;;;;;;;;;;4127061;28;20171;-47
2022/09/08 11:57:01;;;;;;;0.50;0.32;;;;;;;;;;4131956;28;21780;-47
2022/09/08 11:59:10;;;;;;;0.20;0.20;;;;;;;;;;4136017;28;20413;-48
2022/09/08 12:01:32;;;;;;;1.10;0.30;;;;;;;;;;4134345;28;20167;-56
2022/09/08 12:03:51;;;;;;;0.73;0.28;;;;;;;;;;4127919;28;20102;-54
2022/09/08 12:05:52;;;;;;;0.77;0.30;;;;;;;;;;4125782;28;20058;-56
2022/09/08 12:08:12;;;;;;;1.65;0.40;;;;;;;;;;4117447;28;21404;-55
2022/09/08 12:10:36;;;;;;;2.13;0.40;;;;;;;;;;4117156;28;20125;-50
2022/09/08 12:12:51;;;;;;;1.15;0.40;;;;;;;;;;4140892;28;20072;-53
2022/09/08 12:15:02;;;;;;;0.63;0.32;;;;;;;;;;4125123;28;20100;-48
2022/09/08 12:17:20;;;;;;;0.60;0.40;;;;;;;;;;4142820;28;20053;-53
2022/09/08 12:19:43;;;;;;;4.88;0.40;;;;;;;;;;4131772;28;20588;-51
2022/09/08 12:22:02;;;;;;;2.70;0.40;;;;;;;;;;4133278;28;20053;-53
2022/09/08 12:24:22;;;;;;;0.95;0.32;;;;;;;;;;4115331;28;20500;-53
2022/09/08 12:26:35;;;;;;;0.28;0.20;;;;;;;;;;4132416;28;20103;-52
2022/09/08 12:29:00;;;;;;;1.40;0.43;;;;;;;;;;4132471;28;20065;-52
2022/09/08 12:31:07;;;;;;;0.63;0.20;;;;;;;;;;4128030;28;20457;-55
2022/09/08 12:33:45;;;;;;;0.88;0.30;;;;;;;;;;4128892;28;20426;-55
2022/09/08 12:35:53;;;;;;;1.40;0.40;;;;;;;;;;4130724;28;20061;-55
2022/09/08 12:38:18;;;;;;;2.30;0.40;;;;;;;;;;4116051;28;20050;-54
2022/09/08 12:40:40;;;;;;;0.40;0.40;;;;;;;;;;4128324;28;20104;-50
2022/09/08 12:43:27;;;;;;;0.73;0.47;;;;;;;;;;4133063;28;20105;-57
2022/09/08 12:45:46;;;;;;;0.63;0.38;;;;;;;;;;4134283;28;20108;-56
2022/09/08 12:47:59;;;;;;;1.13;0.47;;;;;;;;;;4131817;28;20111;-56
2022/09/08 12:50:16;;;;;;;0.65;0.20;;;;;;;;;;4133306;28;20446;-51
2022/09/08 12:52:30;;;;;;;0.88;0.40;;;;;;;;;;4136476;28;20053;-56
2022/09/08 12:54:55;;;;;;;1.85;0.35;;;;;;;;;;4137100;28;21042;-53
2022/09/08 12:57:06;;;;;;;1.77;0.35;;;;;;;;;;4128352;28;20129;-48
2022/09/08 12:59:14;;;;;;;0.32;0.30;;;;;;;;;;4119929;28;20068;-53
2022/09/08 13:01:33;;;;;;;0.32;0.32;;;;;;;;;;4125553;28;20492;-53
2022/09/08 13:03:36;;;;;;;0.32;0.30;;;;;;;;;;4122268;28;20054;-52
2022/09/08 13:05:57;;;;;;;0.98;0.30;;;;;;;;;;4129306;28;20053;-56
2022/09/08 13:08:08;;;;;;;0.52;0.20;;;;;;;;;;4127495;28;20093;-53